Time;durP1;ratioP1;P1;durP2;ratioP2;P2;SDS_P1;SDS_P2;PMS_P1;PMS_P2;Temp;Humidity;BMP_temperature;BMP_pressure;BME280_temperature;BME280_humidity;BME280_pressure;Samples;Min_cycle;Max_cycle;Signal;HPM_P1;HPM_P2
2023/01/25 00:01:46;;;;;;;46.23;24.57;;;;;;;-145.18;100.00;46666.25;6095077;23;20384;-73
2023/01/25 00:04:12;;;;;;;48.57;26.57;;;;;;;-145.18;100.00;46664.31;6095192;23;20026;-73
2023/01/25 00:06:37;;;;;;;54.33;26.80;;;;;;;-145.18;100.00;46658.44;6095252;23;20089;-73
2023/01/25 00:09:03;;;;;;;46.47;24.73;;;;;;;-145.18;100.00;46654.53;6095142;23;20089;-74
2023/01/25 00:11:28;;;;;;;52.83;24.60;;;;;;;-145.18;100.00;46654.53;6095224;23;20013;-73
2023/01/25 00:13:54;;;;;;;47.90;25.97;;;;;;;-145.18;100.00;46650.63;6117931;23;20020;-73
2023/01/25 00:16:19;;;;;;;47.87;26.07;;;;;;;-145.18;100.00;46648.69;6095041;23;20476;-73
2023/01/25 00:18:45;;;;;;;47.93;26.03;;;;;;;-145.18;100.00;46652.59;6095492;23;20429;-74
2023/01/25 00:21:14;;;;;;;54.67;27.17;;;;;;;-145.18;100.00;46652.59;6117446;23;20011;-74
2023/01/25 00:23:40;;;;;;;53.55;27.15;;;;;;;-145.18;100.00;46648.69;6095374;23;20037;-73
2023/01/25 00:26:05;;;;;;;50.73;27.40;;;;;;;-145.18;100.00;46646.72;6094678;23;20006;-73
2023/01/25 00:36:44;;;;;;;52.70;26.02;;;;;;;-145.18;100.00;46656.50;6094407;23;20014;-73
2023/01/25 00:39:12;;;;;;;52.55;27.50;;;;;;;-145.18;100.00;46644.78;6094538;23;20045;-74
2023/01/25 00:41:38;;;;;;;49.88;26.08;;;;;;;-145.18;100.00;46648.69;6117385;23;20021;-73
2023/01/25 00:44:04;;;;;;;50.83;26.98;;;;;;;-145.18;100.00;46650.63;6095089;23;20093;-73
2023/01/25 00:46:29;;;;;;;55.67;28.93;;;;;;;-145.18;100.00;46652.59;6095005;23;20459;-74
2023/01/25 00:48:56;;;;;;;51.50;26.40;;;;;;;-145.18;100.00;46650.63;6093648;23;20015;-73
2023/01/25 00:51:23;;;;;;;47.10;25.25;;;;;;;-145.18;100.00;46642.81;6094535;23;20010;-73
2023/01/25 00:53:48;;;;;;;53.30;27.92;;;;;;;-145.18;100.00;46650.63;6094428;23;20561;-73
2023/01/25 00:56:13;;;;;;;49.13;26.70;;;;;;;-145.18;100.00;46646.72;6094754;23;20072;-74
2023/01/25 00:58:42;;;;;;;48.20;25.57;;;;;;;-145.18;100.00;46648.69;6094728;23;20336;-73
2023/01/25 01:01:08;;;;;;;50.25;26.80;;;;;;;-145.18;100.00;46648.69;6094626;23;20011;-74
2023/01/25 01:03:33;;;;;;;47.03;26.93;;;;;;;-145.18;100.00;46650.63;6094441;23;20106;-74
2023/01/25 01:06:05;;;;;;;47.47;26.80;;;;;;;-145.18;100.00;46644.78;6095072;23;20010;-74
2023/01/25 01:08:37;;;;;;;47.38;27.13;;;;;;;-145.18;100.00;46650.63;6094284;23;20002;-73
2023/01/25 01:11:05;;;;;;;51.67;27.33;;;;;;;-145.18;100.00;46656.50;6094868;23;20344;-73
2023/01/25 01:13:30;;;;;;;46.72;25.58;;;;;;;-145.18;100.00;46660.41;6094366;23;20248;-73
2023/01/25 01:15:59;;;;;;;47.77;25.60;;;;;;;-145.18;100.00;46660.41;6094733;23;20010;-74
2023/01/25 01:18:24;;;;;;;47.55;25.48;;;;;;;-145.18;100.00;46660.41;6094010;23;20011;-73
2023/01/25 01:20:51;;;;;;;45.77;23.73;;;;;;;-145.18;100.00;46660.41;6094773;23;20336;-73
2023/01/25 01:23:16;;;;;;;49.15;26.30;;;;;;;-145.18;100.00;46662.34;6094322;23;20030;-74
2023/01/25 01:25:42;;;;;;;50.70;26.57;;;;;;;-145.18;100.00;46664.31;6094749;23;20392;-73
2023/01/25 01:28:07;;;;;;;49.10;25.47;;;;;;;-145.18;100.00;46664.31;6094121;23;20373;-73
2023/01/25 01:30:33;;;;;;;48.23;25.30;;;;;;;-145.18;100.00;46662.34;6094418;23;20444;-73
2023/01/25 01:32:58;;;;;;;49.70;27.00;;;;;;;-145.18;100.00;46668.22;6094278;23;20046;-73
2023/01/25 01:35:24;;;;;;;48.43;26.40;;;;;;;-145.18;100.00;46670.16;6094244;23;20344;-74
2023/01/25 01:37:49;;;;;;;53.60;28.07;;;;;;;-145.18;100.00;46674.06;6117444;23;20010;-73
2023/01/25 01:40:15;;;;;;;53.77;27.13;;;;;;;-145.18;100.00;46679.94;6094686;23;20010;-73
2023/01/25 01:43:02;;;;;;;51.50;26.20;;;;;;;-145.18;100.00;46668.22;6093941;23;20018;-74
2023/01/25 01:45:42;;;;;;;52.33;27.27;;;;;;;-145.18;100.00;46668.22;6094273;23;20042;-74
2023/01/25 01:48:14;;;;;;;52.00;26.75;;;;;;;-145.18;100.00;46664.31;6094159;23;20033;-73
2023/01/25 01:50:39;;;;;;;51.05;26.67;;;;;;;-145.18;100.00;46666.25;6094412;23;20010;-74
2023/01/25 01:53:04;;;;;;;51.40;27.10;;;;;;;-145.18;100.00;46656.50;6094164;23;20025;-73
2023/01/25 01:55:30;;;;;;;53.60;26.43;;;;;;;-145.18;100.00;46660.41;6094129;23;20006;-73
2023/01/25 01:57:58;;;;;;;53.97;26.43;;;;;;;-145.18;100.00;46662.34;6116956;23;20436;-73
2023/01/25 02:00:33;;;;;;;53.67;28.77;;;;;;;-145.18;100.00;46668.22;6093957;23;20006;-73
2023/01/25 02:02:59;;;;;;;52.42;27.13;;;;;;;-145.18;100.00;46658.44;6094159;23;20010;-73
2023/01/25 02:05:45;;;;;;;50.70;27.38;;;;;;;-145.18;100.00;46660.41;6093891;23;20093;-73
2023/01/25 02:08:13;;;;;;;51.00;26.52;;;;;;;-145.18;100.00;46666.25;6094167;23;20053;-74
2023/01/25 02:10:41;;;;;;;51.22;26.98;;;;;;;-145.18;100.00;46656.50;6094398;23;20409;-73
2023/01/25 02:13:07;;;;;;;58.88;28.77;;;;;;;-145.18;100.00;46660.41;6094009;23;20014;-73
2023/01/25 02:15:48;;;;;;;52.97;26.27;;;;;;;-145.18;100.00;46662.34;6093785;23;20018;-73
2023/01/25 02:18:14;;;;;;;53.03;26.02;;;;;;;-145.18;100.00;46650.63;6094124;23;20424;-73
2023/01/25 02:20:43;;;;;;;60.45;26.27;;;;;;;-145.18;100.00;46658.44;6116845;23;20448;-73
2023/01/25 02:23:34;;;;;;;53.40;26.83;;;;;;;-145.18;100.00;46652.59;6094050;23;20019;-73
2023/01/25 02:26:02;;;;;;;53.80;26.83;;;;;;;-145.18;100.00;46654.53;6093882;23;20011;-73
2023/01/25 02:29:02;;;;;;;53.08;27.02;;;;;;;-145.18;100.00;46654.53;6093509;23;20009;-73
2023/01/25 02:31:27;;;;;;;55.55;27.77;;;;;;;-145.18;100.00;46656.50;6074234;23;20013;-73
2023/01/25 02:33:53;;;;;;;53.57;25.90;;;;;;;-145.18;100.00;46656.50;6094246;23;20015;-73
2023/01/25 02:36:26;;;;;;;47.47;25.43;;;;;;;-145.18;100.00;46658.44;6093869;23;20448;-73
2023/01/25 02:39:12;;;;;;;46.65;24.50;;;;;;;-145.18;100.00;46648.69;6094477;23;20075;-73
2023/01/25 02:41:39;;;;;;;48.42;25.40;;;;;;;-145.18;100.00;46646.72;6094108;23;20305;-73
2023/01/25 02:44:26;;;;;;;47.95;25.95;;;;;;;-145.18;100.00;46650.63;6094246;23;20014;-73
2023/01/25 02:46:52;;;;;;;51.95;26.25;;;;;;;-145.18;100.00;46662.34;6095973;23;20006;-73
2023/01/25 02:49:17;;;;;;;61.97;29.30;;;;;;;-145.18;100.00;46658.44;6094599;23;20022;-73
2023/01/25 02:51:46;;;;;;;51.27;26.30;;;;;;;-145.18;100.00;46658.44;6095461;23;20049;-73
2023/01/25 02:54:13;;;;;;;44.60;24.92;;;;;;;-145.18;100.00;46654.53;6096086;23;20101;-73
2023/01/25 02:56:42;;;;;;;50.90;27.02;;;;;;;-145.18;100.00;46654.53;6095510;23;20010;-73
2023/01/25 02:59:09;;;;;;;44.53;24.92;;;;;;;-145.18;100.00;46666.25;6118494;23;20085;-73
2023/01/25 03:04:02;;;;;;;50.80;25.83;;;;;;;-145.18;100.00;46660.41;6092649;23;20018;-74
2023/01/25 03:06:28;;;;;;;47.20;26.47;;;;;;;-145.18;100.00;46668.22;6095060;23;20021;-74
2023/01/25 03:08:53;;;;;;;51.57;26.67;;;;;;;-145.18;100.00;46674.06;6094772;23;20055;-74
2023/01/25 03:11:18;;;;;;;47.20;26.07;;;;;;;-145.18;100.00;46664.31;6095507;23;20052;-74
2023/01/25 03:13:44;;;;;;;47.13;25.57;;;;;;;-145.18;100.00;46670.16;6094711;23;20015;-74
2023/01/25 03:16:11;;;;;;;48.77;25.73;;;;;;;-145.18;100.00;46668.22;6095587;23;20010;-74
2023/01/25 03:18:37;;;;;;;47.75;26.42;;;;;;;-145.18;100.00;46676.03;6095157;23;20805;-74
2023/01/25 03:21:09;;;;;;;52.05;26.20;;;;;;;-145.18;100.00;46679.94;6095121;23;20448;-74
2023/01/25 03:23:34;;;;;;;48.25;26.20;;;;;;;-145.18;100.00;46681.88;6069573;23;20026;-74
2023/01/25 03:26:13;;;;;;;47.23;24.83;;;;;;;-145.18;100.00;46685.78;6095083;23;20040;-74
2023/01/25 03:28:40;;;;;;;49.65;25.98;;;;;;;-145.18;100.00;46683.84;6094953;23;20082;-74
2023/01/25 03:31:08;;;;;;;52.38;26.27;;;;;;;-145.18;100.00;46689.69;6095227;23;20031;-74
2023/01/25 03:33:33;;;;;;;48.67;26.17;;;;;;;-145.18;100.00;46681.88;6094772;23;20010;-74
2023/01/25 03:35:59;;;;;;;48.37;27.07;;;;;;;-145.18;100.00;46679.94;6095122;23;20010;-74
2023/01/25 03:38:25;;;;;;;53.57;27.70;;;;;;;-145.18;100.00;46681.88;6095167;23;20043;-74
2023/01/25 03:40:50;;;;;;;48.83;26.65;;;;;;;-145.18;100.00;46676.03;6094901;23;20047;-74
2023/01/25 03:43:16;;;;;;;52.10;27.20;;;;;;;-145.18;100.00;46676.03;6094800;23;20101;-74
2023/01/25 03:45:42;;;;;;;46.93;25.93;;;;;;;-145.18;100.00;46677.97;6095118;23;20006;-74
2023/01/25 03:48:07;;;;;;;48.57;26.10;;;;;;;-145.18;100.00;46683.84;6094982;23;20054;-74
2023/01/25 03:50:32;;;;;;;47.90;25.93;;;;;;;-145.18;100.00;46679.94;6095130;23;20457;-74
2023/01/25 03:53:04;;;;;;;50.80;27.00;;;;;;;-145.18;100.00;46677.97;6094261;23;20010;-74
2023/01/25 03:55:30;;;;;;;47.15;26.02;;;;;;;-145.18;100.00;46670.16;6094931;23;20006;-74
2023/01/25 03:57:55;;;;;;;48.23;26.27;;;;;;;-145.18;100.00;46683.84;6094097;23;20010;-74
2023/01/25 04:00:21;;;;;;;53.10;28.13;;;;;;;-145.18;100.00;46674.06;6095077;23;20082;-74
2023/01/25 04:02:46;;;;;;;51.57;26.10;;;;;;;-145.18;100.00;46679.94;6080275;23;20027;-74
2023/01/25 04:05:11;;;;;;;49.20;25.47;;;;;;;-145.18;100.00;46679.94;6066382;23;20011;-74
2023/01/25 04:07:37;;;;;;;53.50;27.87;;;;;;;-145.18;100.00;46676.03;6065908;23;20038;-74
2023/01/25 04:10:04;;;;;;;50.63;27.00;;;;;;;-145.18;100.00;46679.94;6065725;23;20500;-74
2023/01/25 04:12:29;;;;;;;50.08;26.65;;;;;;;-145.18;100.00;46689.69;6065627;23;20448;-74
2023/01/25 04:14:54;;;;;;;50.80;25.87;;;;;;;-145.18;100.00;46677.97;6065889;23;20017;-74
2023/01/25 04:17:20;;;;;;;51.37;26.67;;;;;;;-145.18;100.00;46672.13;6065728;23;20082;-74
2023/01/25 04:19:45;;;;;;;50.40;25.90;;;;;;;-145.18;100.00;46676.03;6064412;23;20085;-75
2023/01/25 04:22:12;;;;;;;51.57;27.27;;;;;;;-145.18;100.00;46674.06;6063945;23;20385;-74
2023/01/25 04:24:37;;;;;;;50.47;26.65;;;;;;;-145.18;100.00;46677.97;6065982;23;20018;-74
2023/01/25 04:27:04;;;;;;;50.67;27.77;;;;;;;-145.18;100.00;46676.03;6065669;23;20015;-74
2023/01/25 04:29:29;;;;;;;50.50;25.02;;;;;;;-145.18;100.00;46679.94;6065938;23;20007;-74
2023/01/25 04:31:55;;;;;;;53.27;26.97;;;;;;;-145.18;100.00;46679.94;6065246;23;20017;-74
2023/01/25 04:34:20;;;;;;;55.33;28.97;;;;;;;-145.18;100.00;46681.88;6065798;23;20014;-74
2023/01/25 04:36:46;;;;;;;52.83;27.87;;;;;;;-145.18;100.00;46674.06;6065695;23;20038;-74
2023/01/25 04:39:11;;;;;;;51.07;26.37;;;;;;;-145.18;100.00;46668.22;6065854;23;20511;-74
2023/01/25 04:41:37;;;;;;;50.03;26.53;;;;;;;-145.18;100.00;46670.16;6065932;23;20129;-74
2023/01/25 04:44:02;;;;;;;52.80;26.70;;;;;;;-145.18;100.00;46662.34;6063562;23;20467;-74
2023/01/25 04:46:27;;;;;;;48.67;26.70;;;;;;;-145.18;100.00;46662.34;6065818;23;20015;-74
2023/01/25 04:48:53;;;;;;;50.97;26.50;;;;;;;-145.18;100.00;46656.50;6065238;23;20018;-74
2023/01/25 04:51:18;;;;;;;54.77;28.13;;;;;;;-145.18;100.00;46652.59;6062877;23;20018;-74
2023/01/25 04:53:44;;;;;;;52.77;26.07;;;;;;;-145.18;100.00;46660.41;6064897;23;20011;-74
2023/01/25 04:56:09;;;;;;;51.13;26.40;;;;;;;-145.18;100.00;46658.44;6065244;23;20452;-74
2023/01/25 04:58:35;;;;;;;54.30;27.50;;;;;;;-145.18;100.00;46672.13;6064809;23;20018;-74
2023/01/25 05:01:01;;;;;;;47.53;26.27;;;;;;;-145.18;100.00;46660.41;6065259;23;20361;-74
2023/01/25 05:03:27;;;;;;;50.00;26.48;;;;;;;-145.18;100.00;46664.31;6064745;23;20023;-74
2023/01/25 05:05:52;;;;;;;52.17;27.17;;;;;;;-145.18;100.00;46670.16;6064961;23;20098;-74
2023/01/25 05:08:18;;;;;;;47.60;25.37;;;;;;;-145.18;100.00;46672.13;6064757;23;20451;-74
2023/01/25 05:10:44;;;;;;;48.33;25.57;;;;;;;-145.18;100.00;46672.13;6063434;23;20038;-74
2023/01/25 05:13:09;;;;;;;50.17;26.53;;;;;;;-145.18;100.00;46668.22;6065034;23;20014;-74
2023/01/25 05:15:34;;;;;;;51.00;25.83;;;;;;;-145.18;100.00;46662.34;6065031;23;20071;-74
2023/01/25 05:18:00;;;;;;;49.33;26.47;;;;;;;-145.18;100.00;46652.59;6064713;23;20010;-74
2023/01/25 05:20:25;;;;;;;52.47;27.30;;;;;;;-145.18;100.00;46656.50;6065391;23;20018;-74
2023/01/25 05:22:50;;;;;;;51.77;27.03;;;;;;;-145.18;100.00;46658.44;6065141;23;20471;-74
2023/01/25 05:28:03;;;;;;;54.08;26.70;;;;;;;-145.18;100.00;46648.69;6063229;23;20074;-74
2023/01/25 05:30:29;;;;;;;50.92;27.25;;;;;;;-145.18;100.00;46650.63;6065370;23;19999;-74
2023/01/25 05:32:54;;;;;;;53.27;27.00;;;;;;;-145.18;100.00;46656.50;6064791;23;20385;-73
2023/01/25 05:35:19;;;;;;;59.40;28.60;;;;;;;-145.18;100.00;46650.63;6063244;23;20011;-74
2023/01/25 05:37:45;;;;;;;53.27;27.43;;;;;;;-145.18;100.00;46646.72;6064961;23;20011;-74
2023/01/25 12:36:49;;;;;;;84.53;33.30;;;;;;;-145.18;100.00;46625.22;6327587;22;20382;-73
2023/01/25 12:39:23;;;;;;;79.43;31.43;;;;;;;-145.18;100.00;46631.09;6199227;22;1277567;-73
2023/01/25 12:42:03;;;;;;;82.90;32.92;;;;;;;-145.18;100.00;46625.22;6242433;23;20008;-73
2023/01/25 12:44:40;;;;;;;85.28;33.83;;;;;;;-145.18;100.00;46623.28;6242744;23;20000;-74
2023/01/25 12:47:05;;;;;;;84.70;34.55;;;;;;;-145.18;100.00;46621.31;6242650;23;20000;-73
2023/01/25 12:49:42;;;;;;;83.10;35.67;;;;;;;-145.18;100.00;46631.09;6242236;23;19996;-73
2023/01/25 12:52:36;;;;;;;77.32;31.25;;;;;;;-145.18;100.00;46623.28;6215630;23;20008;-73
2023/01/25 12:55:12;;;;;;;77.43;31.25;;;;;;;-145.18;100.00;46623.28;6227088;23;20022;-73
2023/01/25 12:58:03;;;;;;;82.05;33.50;;;;;;;-145.18;100.00;46619.38;6242800;23;20007;-73
2023/01/25 13:00:39;;;;;;;82.88;32.95;;;;;;;-145.18;100.00;46619.38;6242458;23;20004;-74
2023/01/25 13:03:23;;;;;;;88.32;34.58;;;;;;;-145.18;100.00;46617.41;6242540;22;20417;-73
2023/01/25 13:06:04;;;;;;;86.70;34.53;;;;;;;-145.18;100.00;46623.28;6242324;23;20012;-73
2023/01/25 13:08:49;;;;;;;84.03;33.13;;;;;;;-145.18;100.00;46611.56;6242393;23;20397;-73
2023/01/25 13:11:47;;;;;;;79.28;32.78;;;;;;;-145.18;100.00;46619.38;6242839;23;20007;-73
2023/01/25 13:14:15;;;;;;;78.47;32.45;;;;;;;-145.18;100.00;46619.38;6175949;23;20008;-73
2023/01/25 13:16:52;;;;;;;83.10;33.67;;;;;;;-145.18;100.00;46621.31;6242584;23;20014;-73
2023/01/25 13:19:37;;;;;;;75.85;31.63;;;;;;;-145.18;100.00;46613.50;6242033;23;20340;-73
2023/01/25 13:22:03;;;;;;;79.38;33.30;;;;;;;-145.18;100.00;46623.28;6215460;23;20058;-73
2023/01/25 13:24:31;;;;;;;81.13;32.40;;;;;;;-145.18;100.00;46615.47;6242394;23;20012;-73
2023/01/25 13:27:30;;;;;;;82.60;33.60;;;;;;;-145.18;100.00;46617.41;6242413;23;20083;-73
2023/01/25 13:30:14;;;;;;;79.07;31.05;;;;;;;-145.18;100.00;46613.50;6175997;23;20008;-73
2023/01/25 13:32:43;;;;;;;81.47;31.55;;;;;;;-145.18;100.00;46613.50;6242138;23;20043;-73
2023/01/25 13:35:24;;;;;;;87.45;36.53;;;;;;;-145.18;100.00;46621.31;6242038;23;20008;-73
2023/01/25 13:37:57;;;;;;;76.70;30.70;;;;;;;-145.18;100.00;46627.19;6241804;22;20008;-73
2023/01/25 13:40:36;;;;;;;81.88;33.30;;;;;;;-145.18;100.00;46619.38;6242279;23;20445;-72
2023/01/25 13:43:17;;;;;;;81.18;31.48;;;;;;;-145.18;100.00;46629.13;6242135;23;20008;-73
2023/01/25 13:45:43;;;;;;;70.25;27.63;;;;;;;-145.18;100.00;46638.91;6241807;23;20465;-73
2023/01/25 13:48:17;;;;;;;70.15;27.30;;;;;;;-145.18;100.00;46629.13;6215787;23;20016;-73
2023/01/25 13:50:49;;;;;;;75.25;29.65;;;;;;;-145.18;100.00;46621.31;6242148;23;20000;-73
2023/01/25 13:53:15;;;;;;;82.97;30.60;;;;;;;-145.18;100.00;46619.38;6242373;23;20040;-73
2023/01/25 13:55:46;;;;;;;78.87;31.17;;;;;;;-145.18;100.00;46613.50;6242195;23;20063;-72
2023/01/25 13:58:35;;;;;;;83.10;31.10;;;;;;;-145.18;100.00;46609.59;6242322;23;20007;-72
2023/01/25 14:01:05;;;;;;;83.43;31.77;;;;;;;-145.18;100.00;46601.78;6242924;22;20000;-73
2023/01/25 14:03:40;;;;;;;88.78;34.42;;;;;;;-145.18;100.00;46599.84;6217639;23;20005;-73
2023/01/25 14:06:13;;;;;;;80.15;29.77;;;;;;;-145.18;100.00;46601.78;6243947;23;20004;-73
2023/01/25 14:08:38;;;;;;;85.70;32.42;;;;;;;-145.18;100.00;46599.84;6243771;23;20397;-73
2023/01/25 14:11:04;;;;;;;91.77;34.47;;;;;;;-145.18;100.00;46597.88;6243769;23;20023;-73
2023/01/25 14:13:30;;;;;;;91.80;33.67;;;;;;;-145.18;100.00;46597.88;6244419;23;20432;-72
2023/01/25 14:15:57;;;;;;;88.53;34.43;;;;;;;-145.18;100.00;46593.97;6243744;23;20016;-73
2023/01/25 14:18:37;;;;;;;88.28;36.13;;;;;;;-145.18;100.00;46595.94;6244156;23;20084;-73
2023/01/25 14:21:19;;;;;;;87.90;35.10;;;;;;;-145.18;100.00;46595.94;6243737;23;20050;-73
2023/01/25 14:23:46;;;;;;;87.95;35.42;;;;;;;-145.18;100.00;46597.88;6243717;23;20039;-73
2023/01/25 14:26:26;;;;;;;89.65;34.53;;;;;;;-145.18;100.00;46597.88;6244202;23;20487;-73
2023/01/25 14:28:57;;;;;;;91.43;34.40;;;;;;;-145.18;100.00;46599.84;6243657;23;20004;-73
2023/01/25 14:31:31;;;;;;;93.68;36.15;;;;;;;-145.18;100.00;46595.94;6217331;23;20445;-73
2023/01/25 14:33:57;;;;;;;94.30;33.83;;;;;;;-145.18;100.00;46597.88;6243668;23;20401;-72
2023/01/25 14:36:28;;;;;;;96.50;35.40;;;;;;;-145.18;100.00;46593.97;6244197;23;20087;-72
2023/01/25 14:38:54;;;;;;;93.30;36.08;;;;;;;-145.18;100.00;46601.78;6243126;23;20433;-72
2023/01/25 14:41:27;;;;;;;94.65;32.17;;;;;;;-145.18;100.00;46593.97;6243653;23;20016;-72
2023/01/25 14:43:58;;;;;;;92.93;35.25;;;;;;;-145.18;100.00;46597.88;6243354;23;20007;-73
2023/01/25 14:46:29;;;;;;;89.10;34.88;;;;;;;-145.18;100.00;46597.88;6244129;23;20004;-72
2023/01/25 14:49:25;;;;;;;89.70;32.80;;;;;;;-145.18;100.00;46595.94;6243409;23;20012;-72
2023/01/25 14:52:12;;;;;;;92.97;34.22;;;;;;;-145.18;100.00;46597.88;6243856;23;20008;-73
2023/01/25 14:54:46;;;;;;;95.18;32.30;;;;;;;-145.18;100.00;46593.97;6243873;23;20388;-73
2023/01/25 14:57:26;;;;;;;97.35;36.03;;;;;;;-145.18;100.00;46597.88;6244055;23;20011;-72
2023/01/25 14:59:53;;;;;;;88.97;30.98;;;;;;;-145.18;100.00;46603.75;6243336;23;20011;-72
2023/01/25 15:02:26;;;;;;;81.90;30.77;;;;;;;-145.18;100.00;46597.88;6243855;22;20016;-72
2023/01/25 15:05:06;;;;;;;108.15;36.45;;;;;;;-145.18;100.00;46613.50;6243166;23;20000;-72
2023/01/25 15:07:35;;;;;;;86.45;29.80;;;;;;;-145.18;100.00;46619.38;6244094;23;20090;-72
2023/01/25 15:10:28;;;;;;;80.45;28.58;;;;;;;-145.18;100.00;46625.22;6242802;23;20007;-72
2023/01/25 15:13:03;;;;;;;93.55;32.78;;;;;;;-145.18;100.00;46640.88;6243141;23;20007;-72
2023/01/25 15:15:31;;;;;;;92.55;34.67;;;;;;;-145.18;100.00;46660.41;6243740;23;20005;-73
2023/01/25 15:17:56;;;;;;;104.85;35.85;;;;;;;-145.18;100.00;46666.25;6216553;23;20478;-72
2023/01/25 15:20:36;;;;;;;98.07;35.57;;;;;;;-145.18;100.00;46668.22;6243328;23;20105;-72
2023/01/25 15:23:24;;;;;;;99.47;34.00;;;;;;;-145.18;100.00;46670.16;6239349;23;20360;-73
2023/01/25 15:25:58;;;;;;;100.70;36.42;;;;;;;-145.18;100.00;46676.03;6241734;23;20004;-72
2023/01/25 15:28:35;;;;;;;106.13;37.83;;;;;;;-145.18;100.00;46681.88;6237533;23;20445;-72
2023/01/25 15:31:02;;;;;;;96.68;34.60;;;;;;;-145.18;100.00;46687.75;6240175;23;20064;-72
2023/01/25 15:33:29;;;;;;;98.43;35.53;;;;;;;-145.18;100.00;46693.59;6240611;23;20004;-72
2023/01/25 15:35:55;;;;;;;98.63;37.15;;;;;;;-145.18;100.00;46689.69;6242494;23;20038;-72
2023/01/25 15:38:21;;;;;;;102.07;37.93;;;;;;;-145.18;100.00;46691.66;6242081;23;20659;-72
2023/01/25 15:40:47;;;;;;;103.75;37.85;;;;;;;-145.18;100.00;46679.94;6214461;23;20066;-72
2023/01/25 15:43:18;;;;;;;98.30;38.33;;;;;;;-145.18;100.00;46687.75;6241978;23;20011;-72
2023/01/25 15:45:47;;;;;;;98.90;35.17;;;;;;;-145.18;100.00;46691.66;6241473;23;20436;-72
2023/01/25 15:48:18;;;;;;;102.55;37.30;;;;;;;-145.18;100.00;46687.75;6242755;23;20079;-72
2023/01/25 15:50:44;;;;;;;99.88;35.90;;;;;;;-145.18;100.00;46691.66;6241737;23;20338;-72
2023/01/25 15:53:13;;;;;;;101.23;37.03;;;;;;;-145.18;100.00;46693.59;6241709;23;20001;-72
2023/01/25 15:55:39;;;;;;;103.20;37.92;;;;;;;-145.18;100.00;46693.59;6241526;23;20000;-72
2023/01/25 15:58:05;;;;;;;123.70;45.07;;;;;;;-145.18;100.00;46695.56;6240690;23;20056;-71
2023/01/25 16:00:30;;;;;;;121.13;44.30;;;;;;;-145.18;100.00;46697.50;6236053;23;20019;-71
2023/01/25 16:02:56;;;;;;;134.47;50.27;;;;;;;-145.18;100.00;46697.50;6214496;23;20016;-71
2023/01/25 16:05:21;;;;;;;107.97;39.27;;;;;;;-145.18;100.00;46699.47;6240722;23;20015;-72
2023/01/25 16:07:47;;;;;;;111.00;40.10;;;;;;;-145.18;100.00;46695.56;6214108;23;20099;-71
2023/01/25 16:10:23;;;;;;;103.40;35.70;;;;;;;-145.18;100.00;46699.47;6241672;23;20000;-71
2023/01/25 16:12:49;;;;;;;103.70;34.85;;;;;;;-145.18;100.00;46697.50;6242261;23;20011;-71
2023/01/25 16:15:15;;;;;;;111.97;37.90;;;;;;;-145.18;100.00;46713.13;6242202;23;20000;-71
2023/01/25 16:17:41;;;;;;;106.87;35.03;;;;;;;-145.18;100.00;46713.13;6242177;23;20000;-71
2023/01/25 16:20:14;;;;;;;111.43;38.87;;;;;;;-145.18;100.00;46711.19;6240489;23;20654;-71
2023/01/25 16:22:40;;;;;;;114.20;36.35;;;;;;;-145.18;100.00;46719.00;6241624;23;20079;-71
2023/01/25 16:25:07;;;;;;;134.40;42.20;;;;;;;-145.18;100.00;46722.91;6241602;23;20484;-70
2023/01/25 16:27:34;;;;;;;134.52;41.50;;;;;;;-145.18;100.00;46726.81;6242208;23;20042;-71
2023/01/25 16:30:01;;;;;;;127.22;40.97;;;;;;;-145.18;100.00;46732.66;6241063;23;20426;-71
2023/01/25 16:32:27;;;;;;;135.35;40.15;;;;;;;-145.18;100.00;46732.66;6242353;23;20004;-71
2023/01/25 16:34:52;;;;;;;128.60;44.13;;;;;;;-145.18;100.00;46732.66;6214905;23;20012;-71
2023/01/25 16:37:17;;;;;;;136.30;45.30;;;;;;;-145.18;100.00;46728.75;6239720;23;20437;-71
2023/01/25 16:39:43;;;;;;;141.00;44.50;;;;;;;-145.18;100.00;46736.56;6240756;23;20024;-71
2023/01/25 16:42:09;;;;;;;143.90;47.03;;;;;;;-145.18;100.00;46728.75;6214989;23;20147;-71
2023/01/25 16:44:35;;;;;;;149.07;48.93;;;;;;;-145.18;100.00;46736.56;6241533;23;20007;-70
2023/01/25 16:47:01;;;;;;;151.80;50.77;;;;;;;-145.18;100.00;46734.63;6241563;23;20038;-70
2023/01/25 16:49:26;;;;;;;147.10;48.55;;;;;;;-145.18;100.00;46738.53;6240992;23;20027;-70
2023/01/25 16:51:53;;;;;;;149.00;46.33;;;;;;;-145.18;100.00;46734.63;6189850;23;20008;-70
2023/01/25 16:54:19;;;;;;;148.70;47.85;;;;;;;-145.18;100.00;46734.63;6239304;23;20012;-70
2023/01/25 16:56:46;;;;;;;156.50;50.08;;;;;;;-145.18;100.00;46734.63;6211219;23;20012;-70
2023/01/25 16:59:11;;;;;;;141.25;48.75;;;;;;;-145.18;100.00;46734.63;6214879;23;20110;-70
2023/01/25 17:01:39;;;;;;;151.17;49.17;;;;;;;-145.18;100.00;46736.56;6241487;22;20095;-70
2023/01/25 17:04:05;;;;;;;134.82;45.55;;;;;;;-145.18;100.00;46738.53;6241407;23;20442;-70
2023/01/25 17:06:33;;;;;;;145.73;47.70;;;;;;;-145.18;100.00;46734.63;6241493;23;20018;-70
2023/01/25 17:09:01;;;;;;;145.63;46.72;;;;;;;-145.18;100.00;46732.66;6240136;23;20341;-70
2023/01/25 17:11:28;;;;;;;137.98;48.67;;;;;;;-145.18;100.00;46738.53;6241507;23;20015;-70
2023/01/25 17:13:56;;;;;;;140.43;45.75;;;;;;;-145.18;100.00;46736.56;6241417;23;20031;-70
2023/01/25 17:16:23;;;;;;;153.85;48.35;;;;;;;-145.18;100.00;46736.56;6241527;23;20067;-70
2023/01/25 17:19:00;;;;;;;144.27;47.67;;;;;;;-145.18;100.00;46740.47;6241413;23;20429;-70
2023/01/25 17:21:26;;;;;;;148.60;48.30;;;;;;;-145.18;100.00;46734.63;6241619;23;20341;-70
2023/01/25 17:23:52;;;;;;;143.77;47.03;;;;;;;-145.18;100.00;46738.53;6241114;23;20432;-70
2023/01/25 17:26:20;;;;;;;150.88;47.35;;;;;;;-145.18;100.00;46740.47;6241599;23;20373;-70
2023/01/25 17:28:46;;;;;;;149.77;46.45;;;;;;;-145.18;100.00;46740.47;6241296;23;20334;-70
2023/01/25 17:31:17;;;;;;;153.68;47.08;;;;;;;-145.18;100.00;46738.53;6241560;23;20050;-70
2023/01/25 17:33:42;;;;;;;146.20;46.58;;;;;;;-145.18;100.00;46738.53;6240435;23;20079;-70
2023/01/25 17:36:08;;;;;;;151.67;49.23;;;;;;;-145.18;100.00;46736.56;6241081;23;20047;-70
2023/01/25 17:38:33;;;;;;;160.20;49.00;;;;;;;-145.18;100.00;46746.34;6241406;23;20000;-70
2023/01/25 17:41:07;;;;;;;158.93;51.17;;;;;;;-145.18;100.00;46736.56;6240909;22;20020;-70
2023/01/25 17:43:33;;;;;;;165.52;52.08;;;;;;;-145.18;100.00;46736.56;6240174;23;20000;-70
2023/01/25 17:45:59;;;;;;;168.93;51.23;;;;;;;-145.18;100.00;46732.66;6240134;23;20073;-70
2023/01/25 17:48:25;;;;;;;156.33;49.13;;;;;;;-145.18;100.00;46738.53;6214572;23;20078;-69
2023/01/25 17:51:03;;;;;;;163.93;50.37;;;;;;;-145.18;100.00;46738.53;6241158;23;20047;-70
2023/01/25 17:53:28;;;;;;;154.18;48.15;;;;;;;-145.18;100.00;46738.53;6241474;23;20021;-69
2023/01/25 17:55:54;;;;;;;144.40;48.13;;;;;;;-145.18;100.00;46738.53;6212957;23;20019;-69
2023/01/25 17:58:20;;;;;;;162.63;51.17;;;;;;;-145.18;100.00;46736.56;6239293;23;20719;-69
2023/01/25 18:00:45;;;;;;;144.50;48.07;;;;;;;-145.18;100.00;46738.53;6240198;23;20352;-69
2023/01/25 18:03:12;;;;;;;153.87;50.53;;;;;;;-145.18;100.00;46734.63;6241272;22;20440;-69
2023/01/25 18:05:37;;;;;;;153.07;49.25;;;;;;;-145.18;100.00;46738.53;6240242;23;20012;-69
2023/01/25 18:08:04;;;;;;;148.50;48.00;;;;;;;-145.18;100.00;46736.56;6240978;23;20350;-69
2023/01/25 18:10:30;;;;;;;146.27;47.03;;;;;;;-145.18;100.00;46732.66;6240994;23;20022;-69
2023/01/25 18:12:56;;;;;;;147.57;44.60;;;;;;;-145.18;100.00;46732.66;6240575;23;20012;-69